Time;durP1;ratioP1;P1;durP2;ratioP2;P2;SDS_P1;SDS_P2;PMS_P1;PMS_P2;Temp;Humidity;BMP_temperature;BMP_pressure;BME280_temperature;BME280_humidity;BME280_pressure;Samples;Min_cycle;Max_cycle;Signal;HPM_P1;HPM_P2
2021/09/11 00:03:44;;;;;;;6.72;3.50;;;;;;;;;;10283495;28;20061;-64
2021/09/11 00:08:42;;;;;;;10.38;3.50;;;;;;;;;;10283639;28;20079;-64
2021/09/11 00:13:42;;;;;;;7.47;3.33;;;;;;;;;;10290878;28;20053;-63
2021/09/11 00:18:40;;;;;;;5.53;3.72;;;;;;;;;;10300836;28;20055;-64
2021/09/11 00:23:39;;;;;;;10.13;4.07;;;;;;;;;;10283361;28;20044;-64
2021/09/11 00:28:37;;;;;;;6.78;4.10;;;;;;;;;;10282845;28;20418;-64
2021/09/11 00:33:37;;;;;;;10.77;4.15;;;;;;;;;;10282517;28;20496;-64
2021/09/11 00:38:35;;;;;;;10.95;3.92;;;;;;;;;;10282315;28;20056;-64
2021/09/11 00:43:35;;;;;;;9.02;4.57;;;;;;;;;;10282014;28;20072;-64
2021/09/11 00:48:33;;;;;;;13.88;4.78;;;;;;;;;;10282059;28;20536;-64
2021/09/11 00:53:33;;;;;;;9.32;5.80;;;;;;;;;;10281884;28;20049;-64
2021/09/11 00:58:31;;;;;;;11.77;7.80;;;;;;;;;;10281592;28;20052;-64
2021/09/11 01:03:29;;;;;;;14.13;9.85;;;;;;;;;;10280857;28;20057;-64
2021/09/11 01:08:28;;;;;;;19.13;10.75;;;;;;;;;;10280960;28;20048;-64
2021/09/11 01:13:28;;;;;;;16.88;12.30;;;;;;;;;;10281154;28;20040;-64
2021/09/11 01:18:27;;;;;;;22.70;14.60;;;;;;;;;;10280989;28;20076;-64
2021/09/11 01:23:25;;;;;;;18.27;12.50;;;;;;;;;;10280938;28;20565;-64
2021/09/11 01:28:27;;;;;;;15.60;8.93;;;;;;;;;;10280310;28;20101;-64
2021/09/11 01:33:25;;;;;;;18.33;8.10;;;;;;;;;;10280620;28;20057;-64
2021/09/11 01:38:24;;;;;;;14.23;6.35;;;;;;;;;;10280256;28;20076;-64
2021/09/11 01:43:30;;;;;;;9.15;4.72;;;;;;;;;;10280262;28;20053;-64
2021/09/11 01:48:28;;;;;;;6.55;4.38;;;;;;;;;;10279851;28;20045;-64
2021/09/11 01:53:26;;;;;;;6.78;4.70;;;;;;;;;;10279081;28;20048;-64
2021/09/11 01:58:25;;;;;;;7.07;3.95;;;;;;;;;;10279265;28;20083;-64
2021/09/11 02:03:24;;;;;;;9.82;4.82;;;;;;;;;;10278718;28;20053;-64
2021/09/11 02:08:23;;;;;;;14.52;6.00;;;;;;;;;;10278229;28;20075;-64
2021/09/11 02:13:21;;;;;;;9.20;7.45;;;;;;;;;;10278951;28;20077;-64
2021/09/11 02:18:19;;;;;;;16.23;8.60;;;;;;;;;;10277620;28;20087;-64
2021/09/11 02:23:19;;;;;;;15.52;8.68;;;;;;;;;;10278326;28;20041;-64
2021/09/11 02:28:17;;;;;;;24.58;9.00;;;;;;;;;;10277699;28;20072;-63
2021/09/11 02:33:16;;;;;;;21.70;8.50;;;;;;;;;;10278029;28;20041;-63
2021/09/11 02:38:14;;;;;;;17.75;6.65;;;;;;;;;;10277900;28;20073;-64
2021/09/11 02:43:14;;;;;;;8.95;5.93;;;;;;;;;;10277195;28;20089;-63
2021/09/11 02:48:12;;;;;;;13.68;6.88;;;;;;;;;;10277643;28;20410;-64
2021/09/11 02:53:10;;;;;;;10.73;6.38;;;;;;;;;;10277423;28;20052;-64
2021/09/11 02:58:08;;;;;;;13.90;6.32;;;;;;;;;;10277206;28;20083;-63
2021/09/11 03:03:08;;;;;;;12.68;7.40;;;;;;;;;;10277020;28;20053;-64
2021/09/11 03:08:07;;;;;;;13.65;6.47;;;;;;;;;;10277293;28;20048;-64
2021/09/11 03:13:05;;;;;;;13.23;5.82;;;;;;;;;;10276629;28;20045;-63
2021/09/11 03:18:04;;;;;;;12.82;5.32;;;;;;;;;;10277355;28;20088;-64
2021/09/11 03:23:03;;;;;;;7.75;5.40;;;;;;;;;;10286785;28;20037;-65
2021/09/11 03:28:01;;;;;;;9.00;5.57;;;;;;;;;;10278874;28;20045;-64
2021/09/11 03:33:00;;;;;;;5.57;4.70;;;;;;;;;;10276183;28;20076;-64
2021/09/11 03:37:58;;;;;;;10.07;5.18;;;;;;;;;;10276022;28;20454;-64
2021/09/11 03:42:58;;;;;;;11.38;4.40;;;;;;;;;;10276015;28;20049;-64
2021/09/11 03:47:56;;;;;;;7.70;5.03;;;;;;;;;;10285883;28;20543;-64
2021/09/11 03:52:54;;;;;;;9.23;4.90;;;;;;;;;;10292704;28;20498;-64
2021/09/11 03:57:53;;;;;;;10.40;4.75;;;;;;;;;;10276303;28;20077;-64
2021/09/11 04:02:52;;;;;;;11.77;6.03;;;;;;;;;;10275117;28;20057;-64
2021/09/11 04:07:51;;;;;;;7.78;4.70;;;;;;;;;;10275510;28;20475;-64
2021/09/11 04:12:50;;;;;;;15.05;4.93;;;;;;;;;;10275126;28;20041;-64
2021/09/11 04:17:48;;;;;;;7.72;4.13;;;;;;;;;;10274955;28;20099;-64
2021/09/11 04:22:48;;;;;;;10.43;4.55;;;;;;;;;;10274462;28;20037;-63
2021/09/11 04:27:47;;;;;;;7.03;4.15;;;;;;;;;;10275138;28;20052;-63
2021/09/11 04:32:45;;;;;;;11.02;4.47;;;;;;;;;;10275063;28;20049;-63
2021/09/11 04:37:44;;;;;;;7.15;4.10;;;;;;;;;;10274845;28;20053;-63
2021/09/11 04:42:44;;;;;;;10.45;4.35;;;;;;;;;;10281929;28;20510;-64
2021/09/11 04:47:43;;;;;;;7.13;3.92;;;;;;;;;;10282416;28;20053;-64
2021/09/11 04:52:41;;;;;;;8.63;4.65;;;;;;;;;;10281907;28;20049;-65
2021/09/11 04:57:40;;;;;;;13.27;5.57;;;;;;;;;;10280874;28;20493;-65
2021/09/11 05:02:39;;;;;;;9.18;4.90;;;;;;;;;;10280895;28;20077;-65
2021/09/11 05:07:38;;;;;;;14.23;4.50;;;;;;;;;;10281167;28;20049;-64
2021/09/11 05:12:36;;;;;;;10.75;4.97;;;;;;;;;;10281146;28;20079;-65
2021/09/11 05:17:35;;;;;;;6.70;4.18;;;;;;;;;;10280287;28;20084;-65
2021/09/11 05:22:34;;;;;;;10.93;4.35;;;;;;;;;;10280950;28;20402;-65
2021/09/11 05:27:33;;;;;;;8.73;4.60;;;;;;;;;;10279862;28;20044;-65
2021/09/11 05:32:31;;;;;;;9.50;5.10;;;;;;;;;;10280800;28;20156;-64
2021/09/11 05:37:29;;;;;;;8.48;4.20;;;;;;;;;;10280060;28;20084;-64
2021/09/11 05:42:29;;;;;;;7.82;4.70;;;;;;;;;;10280325;28;20057;-65
2021/09/11 05:47:28;;;;;;;5.20;3.83;;;;;;;;;;10279473;28;20049;-64
2021/09/11 05:52:26;;;;;;;9.98;4.70;;;;;;;;;;10278409;28;20060;-64
2021/09/11 05:57:24;;;;;;;7.72;3.72;;;;;;;;;;10279405;28;20565;-62
2021/09/11 06:02:24;;;;;;;10.30;4.60;;;;;;;;;;10278793;28;20088;-62
2021/09/11 06:07:23;;;;;;;15.40;4.65;;;;;;;;;;10278993;28;20060;-63
2021/09/11 06:12:21;;;;;;;13.48;5.60;;;;;;;;;;10279102;28;20053;-63
2021/09/11 06:17:19;;;;;;;17.58;5.53;;;;;;;;;;10278353;28;20509;-62
2021/09/11 06:22:19;;;;;;;16.48;5.10;;;;;;;;;;10278351;28;20049;-64
2021/09/11 06:27:22;;;;;;;13.10;5.32;;;;;;;;;;10278002;28;20049;-62
2021/09/11 06:32:21;;;;;;;10.18;5.53;;;;;;;;;;10278227;28;20060;-63
2021/09/11 06:37:20;;;;;;;12.55;5.00;;;;;;;;;;10277289;28;20080;-64
2021/09/11 06:42:20;;;;;;;7.35;5.03;;;;;;;;;;10277458;28;20048;-63
2021/09/11 06:47:18;;;;;;;15.75;11.73;;;;;;;;;;10277434;28;20064;-64
2021/09/11 06:52:16;;;;;;;9.18;5.88;;;;;;;;;;10277247;28;20052;-64
2021/09/11 06:57:16;;;;;;;14.32;5.20;;;;;;;;;;10280879;28;20059;-63
2021/09/11 07:02:14;;;;;;;11.05;6.65;;;;;;;;;;10277577;28;20056;-64
2021/09/11 07:07:13;;;;;;;17.40;6.35;;;;;;;;;;10275153;28;20064;-64
2021/09/11 07:12:11;;;;;;;10.00;5.72;;;;;;;;;;10273385;28;20152;-64
2021/09/11 07:17:11;;;;;;;11.90;6.30;;;;;;;;;;10272398;28;20088;-64
2021/09/11 07:22:09;;;;;;;20.40;9.70;;;;;;;;;;10276975;28;20073;-63
2021/09/11 07:27:07;;;;;;;13.13;7.03;;;;;;;;;;10276637;28;20411;-63
2021/09/11 07:32:07;;;;;;;18.50;6.55;;;;;;;;;;10275006;28;20079;-64
2021/09/11 07:37:06;;;;;;;18.30;6.75;;;;;;;;;;10276077;28;20076;-64
2021/09/11 07:42:05;;;;;;;11.60;6.25;;;;;;;;;;10275257;28;20438;-64
2021/09/11 07:47:03;;;;;;;13.15;7.57;;;;;;;;;;10275612;28;20506;-63
2021/09/11 07:52:02;;;;;;;17.70;8.13;;;;;;;;;;10275327;28;20048;-63
2021/09/11 07:57:01;;;;;;;18.80;12.60;;;;;;;;;;10275537;28;20083;-63
2021/09/11 08:02:00;;;;;;;17.30;9.68;;;;;;;;;;10274917;28;20049;-64
2021/09/11 08:06:58;;;;;;;23.85;7.78;;;;;;;;;;10275244;28;20037;-64
2021/09/11 08:11:57;;;;;;;15.00;8.02;;;;;;;;;;10274897;28;20049;-64
2021/09/11 08:16:57;;;;;;;13.57;8.02;;;;;;;;;;10281628;28;20072;-65
2021/09/11 08:21:55;;;;;;;15.20;7.75;;;;;;;;;;10284256;28;20060;-64
2021/09/11 08:26:53;;;;;;;23.75;8.55;;;;;;;;;;10276142;28;20083;-64
2021/09/11 08:31:51;;;;;;;17.85;9.20;;;;;;;;;;10280344;28;20049;-64
2021/09/11 08:36:51;;;;;;;24.42;8.98;;;;;;;;;;10280304;28;20104;-64
2021/09/11 08:41:55;;;;;;;17.70;10.25;;;;;;;;;;10282163;28;20052;-64
2021/09/11 08:46:54;;;;;;;18.40;13.10;;;;;;;;;;10281758;28;20049;-64
2021/09/11 08:51:53;;;;;;;16.60;11.70;;;;;;;;;;10281798;28;20176;-64
2021/09/11 08:56:52;;;;;;;19.63;13.35;;;;;;;;;;10281592;28;20147;-65
2021/09/11 09:02:04;;;;;;;20.45;12.82;;;;;;;;;;10281537;28;20064;-65
2021/09/11 09:07:05;;;;;;;49.45;14.27;;;;;;;;;;10281505;28;20060;-65
2021/09/11 09:12:11;;;;;;;26.40;15.35;;;;;;;;;;10280615;28;20048;-63
2021/09/11 09:17:11;;;;;;;25.23;15.93;;;;;;;;;;10280778;28;20080;-63
2021/09/11 09:22:10;;;;;;;25.20;19.10;;;;;;;;;;10280591;28;20037;-64
2021/09/11 09:27:09;;;;;;;21.95;14.25;;;;;;;;;;10280540;28;20049;-64
2021/09/11 09:32:08;;;;;;;21.48;15.60;;;;;;;;;;10280402;28;20049;-64
2021/09/11 09:37:08;;;;;;;20.35;12.15;;;;;;;;;;10279846;28;20049;-65
2021/09/11 09:42:07;;;;;;;25.20;11.40;;;;;;;;;;10279708;28;20049;-63
2021/09/11 09:47:06;;;;;;;20.25;11.73;;;;;;;;;;10280220;28;20080;-65
2021/09/11 09:52:04;;;;;;;18.42;9.55;;;;;;;;;;10279679;28;20063;-64
2021/09/11 09:57:03;;;;;;;17.60;11.32;;;;;;;;;;10279479;28;20410;-65
2021/09/11 10:02:03;;;;;;;19.73;8.75;;;;;;;;;;10279170;28;20057;-65
2021/09/11 10:07:03;;;;;;;17.17;9.13;;;;;;;;;;10279111;28;20045;-64
2021/09/11 10:12:02;;;;;;;24.58;15.02;;;;;;;;;;10278228;28;20074;-64
2021/09/11 10:17:01;;;;;;;18.45;13.40;;;;;;;;;;10278461;28;20072;-64
2021/09/11 10:22:24;;;;;;;29.33;21.48;;;;;;;;;;10278285;28;20045;-64
2021/09/11 10:27:23;;;;;;;29.08;16.63;;;;;;;;;;10278340;28;20187;-64
2021/09/11 10:32:24;;;;;;;24.02;13.52;;;;;;;;;;10283044;28;20053;-64
2021/09/11 10:37:40;;;;;;;16.45;11.00;;;;;;;;;;10277548;28;20415;-65
2021/09/11 10:42:53;;;;;;;27.55;18.60;;;;;;;;;;10277471;28;20513;-64
2021/09/11 10:48:05;;;;;;;19.13;12.98;;;;;;;;;;10277446;28;20082;-65
2021/09/11 10:53:18;;;;;;;21.90;14.00;;;;;;;;;;10277821;28;20056;-64
2021/09/11 10:58:23;;;;;;;16.75;11.57;;;;;;;;;;10281957;28;20044;-64
2021/09/11 11:03:23;;;;;;;17.85;10.50;;;;;;;;;;10276327;28;20538;-64
2021/09/11 11:08:21;;;;;;;11.15;7.82;;;;;;;;;;10276943;28;20070;-64
2021/09/11 11:13:20;;;;;;;22.60;12.13;;;;;;;;;;10276022;28;20045;-64
2021/09/11 11:18:18;;;;;;;13.15;9.02;;;;;;;;;;10275860;28;20124;-64
2021/09/11 11:23:18;;;;;;;16.35;6.93;;;;;;;;;;10276515;28;20076;-64
2021/09/11 11:28:17;;;;;;;13.82;8.88;;;;;;;;;;10276147;28;20524;-64
2021/09/11 11:33:16;;;;;;;15.38;8.75;;;;;;;;;;10275676;28;20518;-63
2021/09/11 11:38:16;;;;;;;13.32;7.28;;;;;;;;;;10276347;28;20076;-64
2021/09/11 11:43:16;;;;;;;7.85;5.65;;;;;;;;;;10274582;28;20120;-64
2021/09/11 11:48:16;;;;;;;10.15;5.68;;;;;;;;;;10276904;28;20049;-64
2021/09/11 11:53:16;;;;;;;11.68;6.45;;;;;;;;;;10283708;28;20071;-64
2021/09/11 11:58:18;;;;;;;11.05;8.23;;;;;;;;;;10284112;28;20087;-63
2021/09/11 12:03:35;;;;;;;15.30;7.40;;;;;;;;;;10283558;28;20057;-63
2021/09/11 12:08:36;;;;;;;11.77;6.05;;;;;;;;;;10283823;28;20532;-64
2021/09/11 12:13:36;;;;;;;14.93;8.48;;;;;;;;;;10282838;28;20099;-64
2021/09/11 12:18:35;;;;;;;15.75;10.55;;;;;;;;;;10283259;28;20183;-64
2021/09/11 12:23:34;;;;;;;17.55;11.80;;;;;;;;;;10283109;28;20052;-64
2021/09/11 12:28:34;;;;;;;16.70;12.65;;;;;;;;;;10282976;28;20214;-64
2021/09/11 12:33:42;;;;;;;12.68;6.00;;;;;;;;;;10282781;28;20049;-64
2021/09/11 12:38:40;;;;;;;11.35;5.75;;;;;;;;;;10282608;28;20072;-64
2021/09/11 12:43:39;;;;;;;11.27;5.35;;;;;;;;;;10281675;28;20045;-64
2021/09/11 12:48:37;;;;;;;15.20;6.15;;;;;;;;;;10282388;28;20069;-64
2021/09/11 12:53:36;;;;;;;12.02;5.50;;;;;;;;;;10282456;28;20040;-64
2021/09/11 12:58:35;;;;;;;10.10;5.55;;;;;;;;;;10281435;28;20475;-64
2021/09/11 13:03:33;;;;;;;14.88;5.45;;;;;;;;;;10281228;28;20049;-64
2021/09/11 13:08:32;;;;;;;9.82;5.63;;;;;;;;;;10281655;28;20060;-64
2021/09/11 13:13:32;;;;;;;10.70;4.60;;;;;;;;;;10281362;28;20084;-64
2021/09/11 13:18:31;;;;;;;10.20;5.90;;;;;;;;;;10281054;28;20065;-64
2021/09/11 13:23:29;;;;;;;7.25;4.85;;;;;;;;;;10281144;28;20049;-64
2021/09/11 13:28:28;;;;;;;8.88;5.28;;;;;;;;;;10280683;28;20045;-63
2021/09/11 13:33:28;;;;;;;11.10;6.07;;;;;;;;;;10279751;28;20083;-64
2021/09/11 13:38:26;;;;;;;10.32;5.93;;;;;;;;;;10280275;28;20383;-64
2021/09/11 13:43:24;;;;;;;13.23;6.40;;;;;;;;;;10280117;28;20073;-64
2021/09/11 13:48:23;;;;;;;7.80;5.45;;;;;;;;;;10279456;28;20072;-64
2021/09/11 13:53:23;;;;;;;17.52;8.32;;;;;;;;;;10279687;28;20041;-64
2021/09/11 13:58:21;;;;;;;11.63;4.82;;;;;;;;;;10279860;28;20083;-65
2021/09/11 14:03:19;;;;;;;7.05;5.13;;;;;;;;;;10279038;28;20084;-65
2021/09/11 14:08:20;;;;;;;8.35;5.50;;;;;;;;;;10281193;28;20045;-64
2021/09/11 14:13:21;;;;;;;19.08;6.13;;;;;;;;;;10278185;28;20052;-63
2021/09/11 14:18:19;;;;;;;10.90;5.10;;;;;;;;;;10278527;28;20049;-64
2021/09/11 14:23:17;;;;;;;11.95;5.38;;;;;;;;;;10278448;28;20068;-62
2021/09/11 14:28:16;;;;;;;12.93;5.32;;;;;;;;;;10278335;28;20053;-63
2021/09/11 14:33:16;;;;;;;12.52;5.20;;;;;;;;;;10283856;28;20045;-64
2021/09/11 14:38:14;;;;;;;17.90;6.15;;;;;;;;;;10278426;28;20406;-64
2021/09/11 14:43:12;;;;;;;18.13;6.80;;;;;;;;;;10278021;28;20073;-63
2021/09/11 14:48:11;;;;;;;12.23;5.95;;;;;;;;;;10277695;28;20056;-64
2021/09/11 14:53:10;;;;;;;17.85;6.03;;;;;;;;;;10277314;28;20406;-64
2021/09/11 14:58:09;;;;;;;7.60;5.45;;;;;;;;;;10277357;28;20048;-63
2021/09/11 15:03:07;;;;;;;8.35;4.95;;;;;;;;;;10276548;28;20089;-63
2021/09/11 15:08:06;;;;;;;8.30;5.25;;;;;;;;;;10276854;28;20056;-63
2021/09/11 15:13:07;;;;;;;8.93;4.88;;;;;;;;;;10276735;28;20075;-64
2021/09/11 15:18:05;;;;;;;16.52;6.75;;;;;;;;;;10276738;28;20083;-64
2021/09/11 15:23:04;;;;;;;10.73;6.03;;;;;;;;;;10276317;28;20087;-64
2021/09/11 15:28:02;;;;;;;13.25;6.25;;;;;;;;;;10276258;28;20498;-63
2021/09/11 15:33:03;;;;;;;12.75;6.63;;;;;;;;;;10276118;28;20505;-63
2021/09/11 15:38:02;;;;;;;9.93;7.53;;;;;;;;;;10276328;28;20490;-63
2021/09/11 15:43:00;;;;;;;13.13;6.10;;;;;;;;;;10275947;28;20084;-64
2021/09/11 15:48:00;;;;;;;13.57;5.35;;;;;;;;;;10275781;28;20052;-64
2021/09/11 15:53:00;;;;;;;12.48;7.55;;;;;;;;;;10275731;28;20633;-64
2021/09/11 15:57:58;;;;;;;15.82;9.55;;;;;;;;;;10275826;28;20076;-66
2021/09/11 16:02:56;;;;;;;16.42;10.02;;;;;;;;;;10275156;28;20061;-66
2021/09/11 16:07:57;;;;;;;23.92;11.02;;;;;;;;;;10275564;28;20074;-66
2021/09/11 16:12:56;;;;;;;17.17;9.45;;;;;;;;;;10275498;28;20060;-66
2021/09/11 16:17:55;;;;;;;15.70;8.80;;;;;;;;;;10275689;28;20442;-66
2021/09/11 16:22:53;;;;;;;21.70;9.02;;;;;;;;;;10275166;28;20073;-66
2021/09/11 16:27:51;;;;;;;12.23;9.13;;;;;;;;;;10275214;28;20037;-66
2021/09/11 16:32:52;;;;;;;18.00;9.70;;;;;;;;;;10275226;28;20055;-66
2021/09/11 16:37:50;;;;;;;14.23;11.02;;;;;;;;;;10281598;28;20045;-66
2021/09/11 16:42:49;;;;;;;15.27;9.68;;;;;;;;;;10282737;28;20072;-66
2021/09/11 16:47:47;;;;;;;15.38;8.55;;;;;;;;;;10282182;28;20052;-64
2021/09/11 16:52:47;;;;;;;12.40;8.93;;;;;;;;;;10282036;28;20080;-65
2021/09/11 16:57:46;;;;;;;26.00;20.10;;;;;;;;;;10281923;28;20135;-65
2021/09/11 17:02:45;;;;;;;18.42;15.23;;;;;;;;;;10281509;28;20529;-64
2021/09/11 17:07:43;;;;;;;12.15;6.70;;;;;;;;;;10281776;28;20068;-64
2021/09/11 17:12:43;;;;;;;21.58;15.68;;;;;;;;;;10281530;28;20041;-65
2021/09/11 17:17:41;;;;;;;19.83;13.77;;;;;;;;;;10280975;28;20076;-65
2021/09/11 17:22:41;;;;;;;39.00;32.53;;;;;;;;;;10280967;28;20088;-65
2021/09/11 17:27:39;;;;;;;33.20;22.55;;;;;;;;;;10280834;28;20048;-65
2021/09/11 17:32:39;;;;;;;19.10;15.25;;;;;;;;;;10280435;28;20052;-65
2021/09/11 17:37:38;;;;;;;28.55;14.77;;;;;;;;;;10280664;28;20056;-65
2021/09/11 17:42:36;;;;;;;31.70;19.20;;;;;;;;;;10307239;28;20045;-64
2021/09/11 17:47:35;;;;;;;15.30;8.65;;;;;;;;;;10288517;28;20049;-65
2021/09/11 17:52:35;;;;;;;10.95;7.65;;;;;;;;;;10280246;28;20076;-65
2021/09/11 17:57:34;;;;;;;8.77;6.53;;;;;;;;;;10279570;28;20411;-65
2021/09/11 18:02:32;;;;;;;11.48;7.03;;;;;;;;;;10279309;28;20092;-66
2021/09/11 18:07:31;;;;;;;15.68;8.45;;;;;;;;;;10284207;28;20060;-66
2021/09/11 18:12:30;;;;;;;15.35;12.43;;;;;;;;;;10323380;28;20049;-66
2021/09/11 18:17:29;;;;;;;21.95;14.00;;;;;;;;;;10281512;28;20045;-66
2021/09/11 18:22:28;;;;;;;19.63;13.63;;;;;;;;;;10278868;28;20087;-65
2021/09/11 18:27:27;;;;;;;16.92;13.18;;;;;;;;;;10278793;28;20052;-67
2021/09/11 18:32:34;;;;;;;23.40;13.77;;;;;;;;;;10278584;28;20478;-65
2021/09/11 18:37:32;;;;;;;24.75;16.30;;;;;;;;;;10278531;28;20501;-66
2021/09/11 18:42:30;;;;;;;27.63;17.80;;;;;;;;;;10277942;28;20523;-66
2021/09/11 18:47:29;;;;;;;27.00;18.95;;;;;;;;;;10277798;28;20491;-66
2021/09/11 18:52:28;;;;;;;33.17;22.75;;;;;;;;;;10277823;28;20049;-65
2021/09/11 18:57:27;;;;;;;35.17;23.63;;;;;;;;;;10276786;28;20080;-65
2021/09/11 19:02:25;;;;;;;34.13;25.70;;;;;;;;;;10276569;28;20084;-65
2021/09/11 19:07:24;;;;;;;40.00;23.50;;;;;;;;;;10276790;28;20506;-65
2021/09/11 19:12:24;;;;;;;38.08;24.05;;;;;;;;;;10276740;28;20388;-66
2021/09/11 19:17:24;;;;;;;31.00;21.92;;;;;;;;;;10276861;28;20056;-65
2021/09/11 19:22:22;;;;;;;35.28;24.58;;;;;;;;;;10276520;28;20080;-64
2021/09/11 19:27:21;;;;;;;33.33;23.50;;;;;;;;;;10276517;28;20048;-65
2021/09/11 19:32:20;;;;;;;29.67;25.67;;;;;;;;;;10275875;28;20441;-66
2021/09/11 19:37:19;;;;;;;31.85;25.50;;;;;;;;;;10275958;28;20507;-65
2021/09/11 19:42:17;;;;;;;37.95;27.25;;;;;;;;;;10276036;28;20115;-66
2021/09/11 19:47:16;;;;;;;32.72;25.67;;;;;;;;;;10276061;28;20049;-66
2021/09/11 19:52:15;;;;;;;31.70;24.80;;;;;;;;;;10275950;28;20457;-66
2021/09/11 19:57:14;;;;;;;29.40;23.75;;;;;;;;;;10276240;28;20071;-66
2021/09/11 20:02:12;;;;;;;41.45;26.17;;;;;;;;;;10275518;28;20119;-66
2021/09/11 20:07:11;;;;;;;36.53;27.95;;;;;;;;;;10275630;28;20064;-66
2021/09/11 20:12:13;;;;;;;34.40;28.48;;;;;;;;;;10281539;28;20409;-66
2021/09/11 20:17:11;;;;;;;39.40;30.35;;;;;;;;;;10282999;28;20494;-66
2021/09/11 20:22:11;;;;;;;36.03;29.90;;;;;;;;;;10283670;28;20068;-66
2021/09/11 20:27:09;;;;;;;37.60;33.30;;;;;;;;;;10282612;28;20041;-65
2021/09/11 20:32:09;;;;;;;45.97;36.83;;;;;;;;;;10282417;28;20076;-66
2021/09/11 20:37:07;;;;;;;48.17;39.65;;;;;;;;;;10282263;28;20222;-65
2021/09/11 20:42:06;;;;;;;44.40;36.78;;;;;;;;;;10282795;28;20080;-66
2021/09/11 20:47:04;;;;;;;41.63;33.92;;;;;;;;;;10281857;28;20041;-66
2021/09/11 20:52:04;;;;;;;41.45;30.63;;;;;;;;;;10282228;28;20045;-66
2021/09/11 20:57:03;;;;;;;33.63;29.65;;;;;;;;;;10281847;28;20053;-66
2021/09/11 21:02:02;;;;;;;38.80;29.45;;;;;;;;;;10281218;28;20518;-66
2021/09/11 21:07:00;;;;;;;38.67;29.27;;;;;;;;;;10281733;28;20049;-66
2021/09/11 21:12:00;;;;;;;38.17;28.55;;;;;;;;;;10281355;28;20040;-65
2021/09/11 21:16:58;;;;;;;40.05;29.58;;;;;;;;;;10290731;28;20053;-65
2021/09/11 21:22:01;;;;;;;33.72;27.42;;;;;;;;;;10304890;28;20067;-66
2021/09/11 21:27:00;;;;;;;32.28;26.85;;;;;;;;;;10280956;28;20056;-65
2021/09/11 21:31:59;;;;;;;34.63;28.60;;;;;;;;;;10280845;28;20495;-66
2021/09/11 21:36:57;;;;;;;28.45;24.63;;;;;;;;;;10280201;28;20426;-66
2021/09/11 21:41:57;;;;;;;39.53;24.15;;;;;;;;;;10280416;28;20080;-65
2021/09/11 21:46:58;;;;;;;30.65;21.70;;;;;;;;;;10288047;28;20048;-65
2021/09/11 21:51:56;;;;;;;24.75;19.23;;;;;;;;;;10280043;28;20111;-65
2021/09/11 21:56:55;;;;;;;27.05;18.60;;;;;;;;;;10279774;28;20320;-66
2021/09/11 22:01:54;;;;;;;24.88;17.55;;;;;;;;;;10279218;28;20502;-65
2021/09/11 22:06:54;;;;;;;28.27;17.00;;;;;;;;;;10279612;28;20041;-65
2021/09/11 22:11:53;;;;;;;28.48;17.73;;;;;;;;;;10279030;28;20041;-65
2021/09/11 22:16:51;;;;;;;27.25;16.58;;;;;;;;;;10279142;28;20084;-65
2021/09/11 22:21:49;;;;;;;18.92;16.48;;;;;;;;;;10278256;28;20053;-65
2021/09/11 22:26:49;;;;;;;24.02;15.90;;;;;;;;;;10278368;28;20414;-65
2021/09/11 22:31:47;;;;;;;22.30;15.48;;;;;;;;;;10277737;28;20075;-65
2021/09/11 22:36:46;;;;;;;21.13;16.40;;;;;;;;;;10277931;28;20509;-65
2021/09/11 22:41:44;;;;;;;24.50;17.23;;;;;;;;;;10277348;28;20056;-66
2021/09/11 22:46:44;;;;;;;26.60;18.10;;;;;;;;;;10277921;28;20045;-66
2021/09/11 22:51:42;;;;;;;28.35;20.23;;;;;;;;;;10277711;28;20422;-64
2021/09/11 22:56:40;;;;;;;24.88;19.65;;;;;;;;;;10277498;28;20057;-66
2021/09/11 23:01:39;;;;;;;30.55;20.85;;;;;;;;;;10276780;28;20049;-66
2021/09/11 23:06:39;;;;;;;26.73;20.55;;;;;;;;;;10276651;28;20479;-66
2021/09/11 23:11:37;;;;;;;30.67;24.35;;;;;;;;;;10276762;28;20053;-66
2021/09/11 23:16:36;;;;;;;33.33;25.42;;;;;;;;;;10276755;28;20412;-66
2021/09/11 23:21:36;;;;;;;35.53;26.30;;;;;;;;;;10276700;28;20056;-65
2021/09/11 23:26:36;;;;;;;39.38;27.17;;;;;;;;;;10276929;28;20095;-66
2021/09/11 23:31:34;;;;;;;36.58;28.08;;;;;;;;;;10275877;28;20575;-64
2021/09/11 23:36:32;;;;;;;37.80;31.83;;;;;;;;;;10276506;28;20041;-64
2021/09/11 23:41:31;;;;;;;43.58;32.28;;;;;;;;;;10275776;28;20056;-65
2021/09/11 23:46:30;;;;;;;45.95;35.75;;;;;;;;;;10275683;28;20076;-65
2021/09/11 23:51:29;;;;;;;48.28;40.22;;;;;;;;;;10275949;28;20052;-65
2021/09/11 23:56:27;;;;;;;51.05;41.38;;;;;;;;;;10275543;28;20085;-64
